Time;durP1;ratioP1;P1;durP2;ratioP2;P2;SDS_P1;SDS_P2;PMS_P1;PMS_P2;Temp;Humidity;BMP_temperature;BMP_pressure;BME280_temperature;BME280_humidity;BME280_pressure;Samples;Min_cycle;Max_cycle;Signal;HPM_P1;HPM_P2
2021/04/13 00:00:00;;;;;;;;;;;;;;;;;;5036794;28;19913;-85
2021/04/13 00:02:25;;;;;;;;;;;;;;;;;;5037962;28;19923;-85
2021/04/13 00:04:55;;;;;;;;;;;;;;;;;;5056365;28;20413;-85
2021/04/13 00:07:21;;;;;;;;;;;;;;;;;;5072513;28;19916;-85
2021/04/13 00:09:46;;;;;;;;;;;;;;;;;;5089657;28;20497;-84
2021/04/13 00:12:13;;;;;;;;;;;;;;;;;;5089602;28;19917;-85
2021/04/13 00:14:39;;;;;;;;;;;;;;;;;;5089725;28;19920;-84
2021/04/13 00:17:05;;;;;;;;;;;;;;;;;;5056080;28;19917;-84
2021/04/13 00:19:38;;;;;;;;;;;;;;;;;;5072526;28;19916;-84
2021/04/13 00:22:03;;;;;;;;;;;;;;;;;;5038706;28;20439;-84
2021/04/13 00:24:28;;;;;;;;;;;;;;;;;;5056126;28;19916;-84
2021/04/13 00:26:56;;;;;;;;;;;;;;;;;;5039374;28;20309;-84
2021/04/13 00:29:22;;;;;;;;;;;;;;;;;;5055955;28;20014;-84
2021/04/13 00:31:49;;;;;;;;;;;;;;;;;;5055672;28;20003;-84
2021/04/13 00:34:17;;;;;;;;;;;;;;;;;;5056160;28;19923;-84
2021/04/13 00:36:43;;;;;;;;;;;;;;;;;;5072149;28;19912;-84
2021/04/13 00:39:14;;;;;;;;;;;;;;;;;;5072593;28;19974;-83
2021/04/13 00:41:41;;;;;;;;;;;;;;;;;;5072178;28;20011;-83
2021/04/13 00:44:07;;;;;;;;;;;;;;;;;;5055452;28;19916;-84
2021/04/13 00:46:34;;;;;;;;;;;;;;;;;;5055560;28;19939;-84
2021/04/13 00:49:00;;;;;;;;;;;;;;;;;;5055711;28;20303;-83
2021/04/13 00:51:30;;;;;;;;;;;;;;;;;;5050570;28;19987;-84
2021/04/13 00:53:58;;;;;;;;;;;;;;;;;;5052208;28;19919;-84
2021/04/13 00:56:23;;;;;;;;;;;;;;;;;;5051730;28;20023;-84
2021/04/13 00:58:55;;;;;;;;;;;;;;;;;;5035558;28;19956;-83
2021/04/13 01:01:21;;;;;;;;;;;;;;;;;;5051525;28;19961;-84
2021/04/13 01:04:00;;;;;;;;;;;;;;;;;;5064432;28;20433;-83
2021/04/13 01:06:25;;;;;;;;;;;;;;;;;;5055294;28;19923;-84
2021/04/13 01:09:02;;;;;;;;;;;;;;;;;;5055254;28;19913;-84
2021/04/13 01:11:29;;;;;;;;;;;;;;;;;;5071064;28;20107;-83
2021/04/13 01:13:59;;;;;;;;;;;;;;;;;;5071697;28;19939;-84
2021/04/13 01:16:26;;;;;;;;;;;;;;;;;;5038688;28;19920;-85
2021/04/13 01:18:53;;;;;;;;;;;;;;;;;;5055187;28;19912;-84
2021/04/13 01:21:25;;;;;;;;;;;;;;;;;;5054456;28;20393;-84
2021/04/13 01:23:58;;;;;;;;;;;;;;;;;;5038993;28;20286;-84
2021/04/13 01:26:23;;;;;;;;;;;;;;;;;;5039081;28;19916;-83
2021/04/13 01:28:49;;;;;;;;;;;;;;;;;;5054666;28;19918;-84
2021/04/13 01:34:17;;;;;;;;;;;;;;;;;;5090291;28;19916;-84
2021/04/13 01:36:47;;;;;;;;;;;;;;;;;;5038271;28;19912;-84
2021/04/13 01:39:17;;;;;;;;;;;;;;;;;;5038566;28;19912;-84
2021/04/13 01:41:57;;;;;;;;;;;;;;;;;;5037766;28;19935;-84
2021/04/13 01:44:23;;;;;;;;;;;;;;;;;;5039921;28;20345;-84
2021/04/13 01:46:48;;;;;;;;;;;;;;;;;;5053984;28;19963;-84
2021/04/13 01:49:14;;;;;;;;;;;;;;;;;;5070752;28;19951;-84
2021/04/13 01:51:39;;;;;;;;;;;;;;;;;;5053985;28;20366;-84
2021/04/13 01:54:07;;;;;;;;;;;;;;;;;;5071363;28;20273;-85
2021/04/13 01:56:45;;;;;;;;;;;;;;;;;;5054158;28;19916;-84
2021/04/13 01:59:14;;;;;;;;;;;;;;;;;;5054193;28;19913;-84
2021/04/13 02:01:40;;;;;;;;;;;;;;;;;;5054222;28;19920;-84
2021/04/13 02:04:25;;;;;;;;;;;;;;;;;;5053817;28;19916;-84
2021/04/13 02:07:08;;;;;;;;;;;;;;;;;;5067453;28;19913;-84
2021/04/13 02:09:41;;;;;;;;;;;;;;;;;;5050652;28;19924;-84
2021/04/13 02:12:12;;;;;;;;;;;;;;;;;;5051252;28;19913;-85
2021/04/13 02:14:58;;;;;;;;;;;;;;;;;;5075247;28;19920;-84
2021/04/13 02:17:26;;;;;;;;;;;;;;;;;;5039761;28;19916;-85
2021/04/13 02:19:52;;;;;;;;;;;;;;;;;;5054721;28;19916;-84
2021/04/13 02:22:18;;;;;;;;;;;;;;;;;;5037150;28;19961;-84
2021/04/13 02:24:43;;;;;;;;;;;;;;;;;;5054394;28;19917;-84
2021/04/13 02:27:13;;;;;;;;;;;;;;;;;;5054074;28;20384;-84
2021/04/13 02:29:40;;;;;;;;;;;;;;;;;;5037489;28;19924;-84
2021/04/13 02:32:11;;;;;;;;;;;;;;;;;;5037099;28;19916;-84
2021/04/13 02:34:37;;;;;;;;;;;;;;;;;;5054078;28;19912;-84
2021/04/13 02:37:17;;;;;;;;;;;;;;;;;;5054171;28;20327;-84
2021/04/13 02:39:42;;;;;;;;;;;;;;;;;;5049973;28;19912;-84
2021/04/13 02:42:13;;;;;;;;;;;;;;;;;;5050517;28;19975;-85
2021/04/13 02:44:38;;;;;;;;;;;;;;;;;;5050693;28;19925;-84
2021/04/13 02:47:05;;;;;;;;;;;;;;;;;;5033653;28;19916;-84
2021/04/13 02:49:31;;;;;;;;;;;;;;;;;;5050277;28;20415;-85
2021/04/13 02:51:57;;;;;;;;;;;;;;;;;;5033879;28;19919;-84
2021/04/13 02:54:23;;;;;;;;;;;;;;;;;;5050293;28;19991;-84
2021/04/13 02:56:50;;;;;;;;;;;;;;;;;;5050573;28;19964;-84
2021/04/13 02:59:20;;;;;;;;;;;;;;;;;;5050418;28;19916;-84
2021/04/13 03:01:48;;;;;;;;;;;;;;;;;;5033788;28;19966;-85
2021/04/13 03:04:13;;;;;;;;;;;;;;;;;;5083688;28;20361;-85
2021/04/13 03:06:43;;;;;;;;;;;;;;;;;;5045977;28;19955;-84
2021/04/13 03:09:08;;;;;;;;;;;;;;;;;;5057448;28;19920;-85
2021/04/13 03:11:34;;;;;;;;;;;;;;;;;;5073803;28;19916;-84
2021/04/13 03:13:59;;;;;;;;;;;;;;;;;;5071342;28;19912;-85
2021/04/13 03:16:41;;;;;;;;;;;;;;;;;;5036606;28;20386;-84
2021/04/13 03:19:07;;;;;;;;;;;;;;;;;;5037004;28;20392;-84
2021/04/13 03:21:33;;;;;;;;;;;;;;;;;;5056037;28;20282;-84
2021/04/13 03:23:58;;;;;;;;;;;;;;;;;;5073942;28;19923;-83
2021/04/13 03:26:35;;;;;;;;;;;;;;;;;;5039999;28;19912;-84
2021/04/13 03:29:02;;;;;;;;;;;;;;;;;;5057164;28;20362;-83
2021/04/13 03:31:31;;;;;;;;;;;;;;;;;;5039782;28;19927;-85
2021/04/13 03:33:57;;;;;;;;;;;;;;;;;;5034018;28;19928;-84
2021/04/13 03:36:23;;;;;;;;;;;;;;;;;;5036897;28;19916;-83
2021/04/13 03:38:48;;;;;;;;;;;;;;;;;;5053645;28;20374;-84
2021/04/13 03:41:14;;;;;;;;;;;;;;;;;;5053123;28;19917;-84
2021/04/13 03:43:39;;;;;;;;;;;;;;;;;;5036689;28;20050;-83
2021/04/13 03:46:05;;;;;;;;;;;;;;;;;;5052947;28;20285;-83
2021/04/13 03:48:30;;;;;;;;;;;;;;;;;;5053111;28;19917;-83
2021/04/13 03:51:15;;;;;;;;;;;;;;;;;;5069918;28;19959;-83
2021/04/13 03:53:41;;;;;;;;;;;;;;;;;;5069692;28;19913;-84
2021/04/13 03:56:08;;;;;;;;;;;;;;;;;;5036143;28;19913;-83
2021/04/13 03:58:35;;;;;;;;;;;;;;;;;;5036215;28;19995;-84
2021/04/13 04:01:00;;;;;;;;;;;;;;;;;;5069391;28;19996;-84
2021/04/13 04:03:25;;;;;;;;;;;;;;;;;;5045662;28;19999;-84
2021/04/13 04:05:52;;;;;;;;;;;;;;;;;;5058512;28;20259;-83
2021/04/13 04:08:20;;;;;;;;;;;;;;;;;;5076527;28;19948;-84
2021/04/13 04:10:47;;;;;;;;;;;;;;;;;;5059652;28;19922;-84
2021/04/13 04:13:24;;;;;;;;;;;;;;;;;;5092523;28;19916;-84
2021/04/13 04:15:50;;;;;;;;;;;;;;;;;;5041660;28;19916;-83
2021/04/13 04:18:28;;;;;;;;;;;;;;;;;;5056229;28;19912;-83
2021/04/13 04:20:53;;;;;;;;;;;;;;;;;;5056112;28;20364;-84
2021/04/13 04:23:22;;;;;;;;;;;;;;;;;;5055581;28;20025;-84
2021/04/13 04:25:48;;;;;;;;;;;;;;;;;;5072566;28;19912;-84
2021/04/13 04:28:32;;;;;;;;;;;;;;;;;;5052309;28;19927;-84
2021/04/13 04:31:16;;;;;;;;;;;;;;;;;;5035478;28;19913;-84
2021/04/13 04:33:42;;;;;;;;;;;;;;;;;;5069048;28;20450;-83
2021/04/13 04:36:26;;;;;;;;;;;;;;;;;;5052249;28;19960;-83
2021/04/13 04:38:51;;;;;;;;;;;;;;;;;;5052411;28;19958;-82
2021/04/13 04:41:17;;;;;;;;;;;;;;;;;;5051985;28;19912;-83
2021/04/13 04:43:59;;;;;;;;;;;;;;;;;;5035040;28;19917;-82
2021/04/13 04:46:41;;;;;;;;;;;;;;;;;;5053192;28;19956;-84
2021/04/13 04:49:10;;;;;;;;;;;;;;;;;;5035668;28;19966;-83
2021/04/13 04:51:36;;;;;;;;;;;;;;;;;;5051759;28;20310;-83
2021/04/13 04:54:01;;;;;;;;;;;;;;;;;;5052018;28;19913;-84
2021/04/13 04:56:26;;;;;;;;;;;;;;;;;;5035322;28;19920;-84
2021/04/13 04:58:52;;;;;;;;;;;;;;;;;;5051657;28;20378;-85
2021/04/13 05:01:17;;;;;;;;;;;;;;;;;;5033621;28;19913;-84
2021/04/13 05:03:42;;;;;;;;;;;;;;;;;;5029955;28;20211;-84
2021/04/13 05:06:08;;;;;;;;;;;;;;;;;;5071237;28;19944;-84
2021/04/13 05:08:33;;;;;;;;;;;;;;;;;;5054799;28;19959;-84
2021/04/13 05:10:58;;;;;;;;;;;;;;;;;;5038059;28;20289;-84
2021/04/13 05:13:24;;;;;;;;;;;;;;;;;;5054229;28;19927;-84
2021/04/13 05:15:49;;;;;;;;;;;;;;;;;;5071361;28;19962;-83
2021/04/13 05:18:14;;;;;;;;;;;;;;;;;;5071404;28;19917;-84
2021/04/13 05:20:40;;;;;;;;;;;;;;;;;;5071543;28;20007;-86
2021/04/13 05:23:05;;;;;;;;;;;;;;;;;;5036974;28;19995;-85
2021/04/13 05:25:30;;;;;;;;;;;;;;;;;;5034942;28;19920;-85
2021/04/13 05:27:55;;;;;;;;;;;;;;;;;;5052635;28;20282;-86
2021/04/13 05:30:21;;;;;;;;;;;;;;;;;;5053914;28;19952;-85
2021/04/13 05:32:47;;;;;;;;;;;;;;;;;;5037760;28;19982;-86
2021/04/13 05:35:12;;;;;;;;;;;;;;;;;;5038524;28;20419;-89
2021/04/13 05:37:37;;;;;;;;;;;;;;;;;;5038544;28;19913;-91
2021/04/13 05:40:03;;;;;;;;;;;;;;;;;;5038364;28;19916;-86
2021/04/13 05:42:29;;;;;;;;;;;;;;;;;;5070579;28;20259;-84
2021/04/13 05:44:55;;;;;;;;;;;;;;;;;;5049968;28;20007;-86
2021/04/13 05:47:20;;;;;;;;;;;;;;;;;;5051884;28;19917;-89
2021/04/13 05:49:45;;;;;;;;;;;;;;;;;;5051383;28;19958;-86
2021/04/13 05:52:10;;;;;;;;;;;;;;;;;;5067846;28;19920;-86
2021/04/13 05:54:36;;;;;;;;;;;;;;;;;;5068140;28;19967;-86
2021/04/13 05:57:01;;;;;;;;;;;;;;;;;;5068192;28;19919;-86
2021/04/13 05:59:29;;;;;;;;;;;;;;;;;;5051364;28;20435;-85
2021/04/13 06:01:54;;;;;;;;;;;;;;;;;;5067482;28;19917;-86
2021/04/13 06:04:19;;;;;;;;;;;;;;;;;;5082947;28;19966;-86
2021/04/13 06:06:44;;;;;;;;;;;;;;;;;;5052007;28;20380;-85
2021/04/13 06:09:10;;;;;;;;;;;;;;;;;;5072928;28;19912;-81
2021/04/13 06:11:35;;;;;;;;;;;;;;;;;;5042023;28;19917;-85
2021/04/13 06:14:02;;;;;;;;;;;;;;;;;;5053368;28;19924;-85
2021/04/13 06:16:36;;;;;;;;;;;;;;;;;;5037655;28;19952;-84
2021/04/13 06:19:02;;;;;;;;;;;;;;;;;;5055363;28;19920;-85
2021/04/13 06:21:27;;;;;;;;;;;;;;;;;;5070595;28;19921;-85
2021/04/13 06:23:52;;;;;;;;;;;;;;;;;;5054156;28;19935;-84
2021/04/13 06:26:18;;;;;;;;;;;;;;;;;;5037301;28;19981;-85
2021/04/13 06:28:43;;;;;;;;;;;;;;;;;;5054091;28;20307;-85
2021/04/13 06:31:08;;;;;;;;;;;;;;;;;;5053984;28;19923;-85
2021/04/13 06:33:33;;;;;;;;;;;;;;;;;;5037381;28;20397;-86
2021/04/13 06:35:59;;;;;;;;;;;;;;;;;;5054363;28;19913;-84
2021/04/13 06:38:24;;;;;;;;;;;;;;;;;;5053934;28;20015;-85
2021/04/13 06:41:01;;;;;;;;;;;;;;;;;;5054148;28;19919;-84
2021/04/13 06:43:42;;;;;;;;;;;;;;;;;;5069219;28;20318;-85
2021/04/13 06:46:26;;;;;;;;;;;;;;;;;;5051636;28;19925;-82
2021/04/13 06:48:52;;;;;;;;;;;;;;;;;;5052343;28;20399;-86
2021/04/13 06:51:25;;;;;;;;;;;;;;;;;;5053566;28;19962;-86
2021/04/13 06:53:56;;;;;;;;;;;;;;;;;;5054406;28;19912;-87
2021/04/13 06:56:28;;;;;;;;;;;;;;;;;;5057874;28;19912;-87
2021/04/13 06:59:08;;;;;;;;;;;;;;;;;;5057869;28;19981;-89
2021/04/13 07:01:42;;;;;;;;;;;;;;;;;;5058493;28;19923;-88
2021/04/13 07:04:07;;;;;;;;;;;;;;;;;;5074163;28;19912;-90
2021/04/13 07:06:38;;;;;;;;;;;;;;;;;;5054178;28;20332;-87
2021/04/13 07:09:06;;;;;;;;;;;;;;;;;;5037085;28;20452;-85
2021/04/13 07:11:32;;;;;;;;;;;;;;;;;;5054070;28;20063;-84
2021/04/13 07:14:03;;;;;;;;;;;;;;;;;;5038995;28;20335;-85
2021/04/13 07:16:40;;;;;;;;;;;;;;;;;;5057188;28;19916;-85
2021/04/13 07:19:22;;;;;;;;;;;;;;;;;;5057509;28;19912;-85
2021/04/13 07:21:50;;;;;;;;;;;;;;;;;;5073351;28;19916;-85
2021/04/13 07:24:31;;;;;;;;;;;;;;;;;;5073677;28;19912;-85
2021/04/13 07:27:05;;;;;;;;;;;;;;;;;;5073978;28;19919;-85
2021/04/13 07:29:36;;;;;;;;;;;;;;;;;;5074777;28;20366;-84
2021/04/13 07:32:05;;;;;;;;;;;;;;;;;;5073614;28;19912;-86
2021/04/13 07:34:30;;;;;;;;;;;;;;;;;;5056595;28;20002;-85
2021/04/13 07:36:55;;;;;;;;;;;;;;;;;;5056581;28;20031;-86
2021/04/13 07:39:21;;;;;;;;;;;;;;;;;;5075110;28;19919;-86
2021/04/13 07:41:50;;;;;;;;;;;;;;;;;;5039750;28;19913;-88
2021/04/13 07:44:17;;;;;;;;;;;;;;;;;;5057264;28;19971;-85
2021/04/13 07:46:58;;;;;;;;;;;;;;;;;;5040242;28;19965;-87
2021/04/13 07:49:41;;;;;;;;;;;;;;;;;;5057421;28;19924;-89
2021/04/13 07:52:45;;;;;;;;;;;;;;;;;;5040039;28;20381;-91
2021/04/13 07:55:19;;;;;;;;;;;;;;;;;;5016318;28;19920;-89
2021/04/13 07:57:53;;;;;;;;;;;;;;;;;;5010209;28;19917;-87
2021/04/13 08:00:22;;;;;;;;;;;;;;;;;;5015354;28;19923;-86
2021/04/13 08:03:06;;;;;;;;;;;;;;;;;;5056657;28;19912;-86
2021/04/13 08:05:39;;;;;;;;;;;;;;;;;;5072564;28;20042;-84
2021/04/13 08:08:28;;;;;;;;;;;;;;;;;;5056440;28;19935;-86
2021/04/13 08:11:12;;;;;;;;;;;;;;;;;;5070229;28;19912;-87
2021/04/13 08:13:37;;;;;;;;;;;;;;;;;;5072969;28;19917;-79
2021/04/13 08:16:03;;;;;;;;;;;;;;;;;;5071719;28;19970;-79
2021/04/13 08:18:41;;;;;;;;;;;;;;;;;;5055442;28;19947;-80
2021/04/13 08:21:17;;;;;;;;;;;;;;;;;;5068946;28;19960;-79
2021/04/13 08:23:43;;;;;;;;;;;;;;;;;;5055043;28;19948;-79
2021/04/13 08:26:14;;;;;;;;;;;;;;;;;;5038276;28;20005;-79
2021/04/13 08:28:39;;;;;;;;;;;;;;;;;;5072816;28;19940;-79
2021/04/13 08:34:07;;;;;;;;;;;;;;;;;;5071707;28;19912;-79
2021/04/13 08:36:45;;;;;;;;;;;;;;;;;;5072817;28;20334;-78
2021/04/13 08:39:24;;;;;;;;;;;;;;;;;;5054071;28;19951;-79
2021/04/13 08:42:02;;;;;;;;;;;;;;;;;;5036836;28;19912;-78
2021/04/13 08:44:33;;;;;;;;;;;;;;;;;;5055051;28;19927;-79
2021/04/13 08:47:03;;;;;;;;;;;;;;;;;;5055181;28;19920;-79
2021/04/13 08:49:47;;;;;;;;;;;;;;;;;;5038224;28;19970;-80
2021/04/13 08:52:16;;;;;;;;;;;;;;;;;;5088750;28;19916;-82
2021/04/13 08:54:44;;;;;;;;;;;;;;;;;;5055485;28;19920;-80
2021/04/13 08:57:22;;;;;;;;;;;;;;;;;;5055650;28;19920;-81
2021/04/13 08:59:56;;;;;;;;;;;;;;;;;;5071890;28;19955;-80
2021/04/13 09:02:24;;;;;;;;;;;;;;;;;;5037543;28;19999;-83
2021/04/13 09:04:58;;;;;;;;;;;;;;;;;;5053915;28;20028;-82
2021/04/13 09:07:24;;;;;;;;;;;;;;;;;;5053606;28;19917;-80
2021/04/13 09:09:49;;;;;;;;;;;;;;;;;;5045790;28;19912;-80
2021/04/13 09:12:18;;;;;;;;;;;;;;;;;;5070546;28;19975;-82
2021/04/13 09:14:45;;;;;;;;;;;;;;;;;;5071501;28;19927;-81
2021/04/13 09:17:13;;;;;;;;;;;;;;;;;;5034667;28;19959;-81
2021/04/13 09:19:42;;;;;;;;;;;;;;;;;;5034395;28;19913;-82
2021/04/13 09:22:33;;;;;;;;;;;;;;;;;;5065932;28;19942;-88
2021/04/13 09:25:08;;;;;;;;;;;;;;;;;;5056855;28;21878;-82
2021/04/13 09:27:39;;;;;;;;;;;;;;;;;;5094567;28;19966;-84
2021/04/13 09:30:19;;;;;;;;;;;;;;;;;;5055293;28;19913;-87
2021/04/13 09:32:44;;;;;;;;;;;;;;;;;;5054693;28;19916;-86
2021/04/13 09:35:28;;;;;;;;;;;;;;;;;;5022407;28;19920;-90
2021/04/13 09:38:04;;;;;;;;;;;;;;;;;;5073076;28;20441;-89
2021/04/13 09:40:47;;;;;;;;;;;;;;;;;;5070627;28;19917;-83
2021/04/13 09:43:32;;;;;;;;;;;;;;;;;;5067896;28;20032;-81
2021/04/13 09:46:03;;;;;;;;;;;;;;;;;;5067456;28;19916;-80
2021/04/13 09:48:49;;;;;;;;;;;;;;;;;;5066630;28;20295;-82
2021/04/13 09:51:23;;;;;;;;;;;;;;;;;;5034641;28;19916;-82
2021/04/13 09:53:58;;;;;;;;;;;;;;;;;;5067331;28;19924;-82
2021/04/13 09:56:42;;;;;;;;;;;;;;;;;;5065984;28;19958;-81
2021/04/13 09:59:16;;;;;;;;;;;;;;;;;;5031310;28;20353;-81
2021/04/13 10:02:00;;;;;;;;;;;;;;;;;;5064734;28;19909;-80
2021/04/13 10:04:25;;;;;;;;;;;;;;;;;;5051800;28;20453;-80
2021/04/13 10:07:06;;;;;;;;;;;;;;;;;;5086658;28;19912;-80
2021/04/13 10:09:34;;;;;;;;;;;;;;;;;;5037140;28;19916;-80
2021/04/13 10:12:18;;;;;;;;;;;;;;;;;;5064282;28;20374;-81
2021/04/13 10:15:01;;;;;;;;;;;;;;;;;;5075844;28;19931;-80
2021/04/13 10:17:45;;;;;;;;;;;;;;;;;;5037361;28;19995;-81
2021/04/13 10:20:25;;;;;;;;;;;;;;;;;;5053720;28;19919;-81
2021/04/13 10:22:51;;;;;;;;;;;;;;;;;;5020623;28;20007;-80
2021/04/13 10:25:17;;;;;;;;;;;;;;;;;;5067750;28;19999;-80
2021/04/13 10:27:45;;;;;;;;;;;;;;;;;;5053292;28;19940;-80
2021/04/13 10:30:23;;;;;;;;;;;;;;;;;;5056363;28;19919;-81
2021/04/13 10:32:54;;;;;;;;;;;;;;;;;;5040590;28;19912;-81
2021/04/13 10:35:37;;;;;;;;;;;;;;;;;;5073832;28;20378;-80
2021/04/13 10:38:25;;;;;;;;;;;;;;;;;;5075646;28;20417;-81
2021/04/13 10:41:09;;;;;;;;;;;;;;;;;;5074396;28;20358;-82
2021/04/13 10:43:47;;;;;;;;;;;;;;;;;;5073688;28;19970;-81
2021/04/13 10:46:23;;;;;;;;;;;;;;;;;;5062464;28;19959;-81
2021/04/13 10:49:07;;;;;;;;;;;;;;;;;;5073924;28;19974;-82
2021/04/13 10:51:45;;;;;;;;;;;;;;;;;;5040199;28;19920;-82
2021/04/13 10:54:16;;;;;;;;;;;;;;;;;;5057866;28;19939;-82
2021/04/13 10:56:42;;;;;;;;;;;;;;;;;;5057424;28;19919;-81
2021/04/13 10:59:26;;;;;;;;;;;;;;;;;;5057708;28;19913;-81
2021/04/13 11:01:52;;;;;;;;;;;;;;;;;;5057353;28;20001;-81
2021/04/13 11:04:20;;;;;;;;;;;;;;;;;;5040604;28;19970;-81
2021/04/13 11:06:51;;;;;;;;;;;;;;;;;;5057176;28;19955;-81
2021/04/13 11:09:58;;;;;;;;;;;;;;;;;;5084284;28;19927;-81
2021/04/13 11:12:29;;;;;;;;;;;;;;;;;;5012845;28;20008;-77
2021/04/13 11:15:13;;;;;;;;;;;;;;;;;;5006283;28;19921;-82
2021/04/13 11:17:55;;;;;;;;;;;;;;;;;;5052316;28;20381;-82
2021/04/13 11:20:34;;;;;;;;;;;;;;;;;;5040438;28;20429;-82
2021/04/13 11:23:14;;;;;;;;;;;;;;;;;;5040613;28;19916;-82
2021/04/13 11:25:55;;;;;;;;;;;;;;;;;;5036852;28;20274;-85
2021/04/13 11:28:59;;;;;;;;;;;;;;;;;;5070272;28;19913;-84
2021/04/13 11:31:27;;;;;;;;;;;;;;;;;;5012451;28;19959;-82
2021/04/13 11:33:56;;;;;;;;;;;;;;;;;;5013294;28;19913;-89
2021/04/13 11:36:21;;;;;;;;;;;;;;;;;;5004317;28;19968;-90
2021/04/13 11:38:49;;;;;;;;;;;;;;;;;;5067681;28;20338;-87
2021/04/13 11:41:21;;;;;;;;;;;;;;;;;;5035280;28;19995;-85
2021/04/13 11:43:57;;;;;;;;;;;;;;;;;;5036920;28;20318;-87
2021/04/13 11:46:43;;;;;;;;;;;;;;;;;;5072706;28;19923;-80
2021/04/13 11:49:14;;;;;;;;;;;;;;;;;;5038190;28;19977;-79
2021/04/13 11:51:49;;;;;;;;;;;;;;;;;;5052261;28;19913;-79
2021/04/13 11:54:34;;;;;;;;;;;;;;;;;;5070048;28;20007;-79
2021/04/13 11:57:13;;;;;;;;;;;;;;;;;;5053148;28;20417;-79
2021/04/13 11:59:38;;;;;;;;;;;;;;;;;;5052861;28;19913;-79
2021/04/13 12:02:23;;;;;;;;;;;;;;;;;;5035634;28;19917;-79
2021/04/13 12:04:52;;;;;;;;;;;;;;;;;;5060429;28;20003;-79
2021/04/13 12:07:36;;;;;;;;;;;;;;;;;;5051783;28;19962;-79
2021/04/13 12:10:02;;;;;;;;;;;;;;;;;;5056114;28;19951;-80
2021/04/13 12:12:31;;;;;;;;;;;;;;;;;;5054706;28;20003;-79
2021/04/13 12:14:57;;;;;;;;;;;;;;;;;;5055761;28;19916;-82
2021/04/13 12:17:29;;;;;;;;;;;;;;;;;;5039313;28;19948;-80
2021/04/13 12:20:13;;;;;;;;;;;;;;;;;;5073698;28;19923;-81
2021/04/13 12:22:38;;;;;;;;;;;;;;;;;;5038472;28;19920;-81
2021/04/13 12:25:03;;;;;;;;;;;;;;;;;;5039119;28;19927;-81
2021/04/13 12:27:29;;;;;;;;;;;;;;;;;;5055508;28;19917;-82
2021/04/13 12:30:13;;;;;;;;;;;;;;;;;;5039397;28;19943;-81
2021/04/13 12:32:44;;;;;;;;;;;;;;;;;;5038642;28;19958;-80
2021/04/13 12:35:09;;;;;;;;;;;;;;;;;;5038989;28;19927;-81
2021/04/13 12:37:35;;;;;;;;;;;;;;;;;;5022331;28;19920;-81
2021/04/13 12:40:21;;;;;;;;;;;;;;;;;;5035538;28;20003;-82
2021/04/13 12:42:52;;;;;;;;;;;;;;;;;;5034644;28;20003;-81
2021/04/13 12:45:18;;;;;;;;;;;;;;;;;;5018904;28;19967;-80
2021/04/13 12:47:45;;;;;;;;;;;;;;;;;;5049560;28;19924;-80
2021/04/13 12:50:28;;;;;;;;;;;;;;;;;;5038964;28;19935;-80
2021/04/13 12:52:53;;;;;;;;;;;;;;;;;;5021889;28;19912;-80
2021/04/13 12:55:18;;;;;;;;;;;;;;;;;;5071398;28;19962;-82
2021/04/13 12:57:57;;;;;;;;;;;;;;;;;;5022465;28;19917;-81
2021/04/13 13:00:24;;;;;;;;;;;;;;;;;;5038393;28;20297;-82
2021/04/13 13:02:50;;;;;;;;;;;;;;;;;;5038313;28;19944;-82
2021/04/13 13:05:20;;;;;;;;;;;;;;;;;;5020899;28;19947;-82
2021/04/13 13:07:53;;;;;;;;;;;;;;;;;;5038455;28;20386;-83
2021/04/13 13:10:18;;;;;;;;;;;;;;;;;;5063669;28;19912;-83
2021/04/13 13:12:44;;;;;;;;;;;;;;;;;;5071833;28;19920;-82
2021/04/13 13:15:10;;;;;;;;;;;;;;;;;;5054027;28;19920;-83
2021/04/13 13:17:40;;;;;;;;;;;;;;;;;;5038242;28;19975;-83
2021/04/13 13:20:07;;;;;;;;;;;;;;;;;;5054944;28;19951;-82
2021/04/13 13:22:34;;;;;;;;;;;;;;;;;;5053944;28;19912;-82
2021/04/13 13:25:22;;;;;;;;;;;;;;;;;;5054084;28;20057;-81
2021/04/13 13:27:48;;;;;;;;;;;;;;;;;;5051316;28;19917;-81
2021/04/13 13:30:14;;;;;;;;;;;;;;;;;;5051061;28;19989;-81
2021/04/13 13:32:40;;;;;;;;;;;;;;;;;;5050635;28;19966;-83
2021/04/13 13:35:07;;;;;;;;;;;;;;;;;;5051422;28;19959;-84
2021/04/13 13:37:34;;;;;;;;;;;;;;;;;;5034472;28;20329;-82
2021/04/13 13:40:00;;;;;;;;;;;;;;;;;;5077671;28;19919;-83
2021/04/13 13:42:25;;;;;;;;;;;;;;;;;;5037874;28;19916;-84
2021/04/13 13:44:51;;;;;;;;;;;;;;;;;;5037069;28;19964;-83
2021/04/13 13:47:20;;;;;;;;;;;;;;;;;;5052828;28;20258;-81
2021/04/13 13:49:55;;;;;;;;;;;;;;;;;;5019489;28;19924;-82
2021/04/13 13:52:36;;;;;;;;;;;;;;;;;;5054790;28;19912;-81
2021/04/13 13:55:06;;;;;;;;;;;;;;;;;;5072072;28;19912;-81
2021/04/13 13:57:36;;;;;;;;;;;;;;;;;;5021210;28;19923;-82
2021/04/13 14:00:02;;;;;;;;;;;;;;;;;;5054487;28;19917;-80
2021/04/13 14:02:28;;;;;;;;;;;;;;;;;;5035580;28;20434;-81
2021/04/13 14:04:54;;;;;;;;;;;;;;;;;;5069339;28;19996;-81
2021/04/13 14:07:27;;;;;;;;;;;;;;;;;;5070143;28;19947;-81
2021/04/13 14:10:09;;;;;;;;;;;;;;;;;;5070963;28;19951;-82
2021/04/13 14:12:35;;;;;;;;;;;;;;;;;;5050245;28;19916;-81
2021/04/13 14:15:14;;;;;;;;;;;;;;;;;;5078215;28;19916;-82
2021/04/13 14:17:39;;;;;;;;;;;;;;;;;;5038213;28;19956;-81
2021/04/13 14:20:06;;;;;;;;;;;;;;;;;;5037627;28;20013;-82
2021/04/13 14:22:31;;;;;;;;;;;;;;;;;;5037228;28;19931;-81
2021/04/13 14:25:06;;;;;;;;;;;;;;;;;;5053911;28;19917;-81
2021/04/13 14:27:31;;;;;;;;;;;;;;;;;;5053963;28;19967;-81
2021/04/13 14:29:56;;;;;;;;;;;;;;;;;;5038711;28;20374;-81
2021/04/13 14:32:29;;;;;;;;;;;;;;;;;;5054643;28;19944;-82
2021/04/13 14:34:56;;;;;;;;;;;;;;;;;;5038374;28;19956;-82
2021/04/13 14:37:26;;;;;;;;;;;;;;;;;;5054248;28;19917;-82
2021/04/13 14:39:52;;;;;;;;;;;;;;;;;;5046367;28;19912;-82
2021/04/13 14:42:24;;;;;;;;;;;;;;;;;;5070625;28;20003;-81
2021/04/13 14:44:50;;;;;;;;;;;;;;;;;;5021705;28;19925;-81
2021/04/13 14:47:24;;;;;;;;;;;;;;;;;;5037779;28;19947;-82
2021/04/13 14:49:50;;;;;;;;;;;;;;;;;;5034340;28;20374;-82
2021/04/13 14:52:15;;;;;;;;;;;;;;;;;;5069321;28;19917;-80
2021/04/13 14:54:40;;;;;;;;;;;;;;;;;;5036461;28;19923;-82
2021/04/13 14:57:08;;;;;;;;;;;;;;;;;;5054162;28;19924;-81
2021/04/13 14:59:33;;;;;;;;;;;;;;;;;;5020747;28;19924;-81
2021/04/13 15:01:58;;;;;;;;;;;;;;;;;;5033988;28;19916;-81
2021/04/13 15:04:23;;;;;;;;;;;;;;;;;;5056191;28;20378;-81
2021/04/13 15:06:54;;;;;;;;;;;;;;;;;;5027922;28;19921;-82
2021/04/13 15:09:19;;;;;;;;;;;;;;;;;;5054236;28;19916;-82
2021/04/13 15:11:45;;;;;;;;;;;;;;;;;;5020075;28;19969;-82
2021/04/13 15:14:10;;;;;;;;;;;;;;;;;;5053500;28;19920;-81
2021/04/13 15:16:35;;;;;;;;;;;;;;;;;;5039758;28;20322;-81
2021/04/13 15:19:00;;;;;;;;;;;;;;;;;;5057229;28;19944;-82
2021/04/13 15:21:32;;;;;;;;;;;;;;;;;;5056523;28;19913;-82
2021/04/13 15:24:00;;;;;;;;;;;;;;;;;;5041570;28;19912;-82
2021/04/13 15:26:26;;;;;;;;;;;;;;;;;;5023766;28;20003;-83
2021/04/13 15:28:51;;;;;;;;;;;;;;;;;;5056972;28;20418;-82
2021/04/13 15:31:16;;;;;;;;;;;;;;;;;;5056663;28;19919;-84
2021/04/13 15:33:50;;;;;;;;;;;;;;;;;;5039818;28;19994;-81
2021/04/13 15:36:20;;;;;;;;;;;;;;;;;;5056624;28;19916;-82
2021/04/13 15:38:46;;;;;;;;;;;;;;;;;;5038778;28;20409;-82
2021/04/13 15:41:15;;;;;;;;;;;;;;;;;;5041174;28;19917;-83
2021/04/13 15:43:41;;;;;;;;;;;;;;;;;;5072430;28;20282;-83
2021/04/13 15:46:12;;;;;;;;;;;;;;;;;;5040029;28;19924;-83
2021/04/13 15:48:41;;;;;;;;;;;;;;;;;;5073584;28;19919;-83
2021/04/13 15:51:06;;;;;;;;;;;;;;;;;;5066894;28;19917;-82
2021/04/13 15:53:31;;;;;;;;;;;;;;;;;;5023122;28;20426;-83
2021/04/13 15:55:57;;;;;;;;;;;;;;;;;;5056575;28;19935;-82
2021/04/13 15:58:22;;;;;;;;;;;;;;;;;;5040049;28;19919;-83
2021/04/13 16:00:48;;;;;;;;;;;;;;;;;;5056396;28;20402;-82
2021/04/13 16:03:13;;;;;;;;;;;;;;;;;;5039331;28;19951;-82
2021/04/13 16:05:38;;;;;;;;;;;;;;;;;;5039203;28;19962;-82
2021/04/13 16:08:04;;;;;;;;;;;;;;;;;;5090099;28;19920;-83
2021/04/13 16:10:29;;;;;;;;;;;;;;;;;;5072287;28;20382;-82
2021/04/13 16:12:55;;;;;;;;;;;;;;;;;;5072451;28;19920;-81
2021/04/13 16:15:21;;;;;;;;;;;;;;;;;;5039152;28;19925;-82
2021/04/13 16:17:46;;;;;;;;;;;;;;;;;;5056078;28;19920;-83
2021/04/13 16:20:12;;;;;;;;;;;;;;;;;;5054915;28;19919;-83
2021/04/13 16:22:37;;;;;;;;;;;;;;;;;;5039368;28;19916;-82
2021/04/13 16:25:04;;;;;;;;;;;;;;;;;;5039186;28;19966;-82
2021/04/13 16:27:29;;;;;;;;;;;;;;;;;;5055307;28;20010;-81
2021/04/13 16:29:54;;;;;;;;;;;;;;;;;;5022725;28;20429;-82
2021/04/13 16:32:29;;;;;;;;;;;;;;;;;;5055360;28;19913;-81
2021/04/13 16:34:56;;;;;;;;;;;;;;;;;;5072454;28;20003;-81
2021/04/13 16:37:22;;;;;;;;;;;;;;;;;;5055538;28;19912;-82
2021/04/13 16:39:47;;;;;;;;;;;;;;;;;;5072486;28;19917;-81
2021/04/13 16:42:28;;;;;;;;;;;;;;;;;;5055046;28;19912;-83
2021/04/13 16:44:54;;;;;;;;;;;;;;;;;;5055666;28;20022;-82
2021/04/13 16:47:19;;;;;;;;;;;;;;;;;;5071979;28;19916;-82
2021/04/13 16:49:45;;;;;;;;;;;;;;;;;;5054792;28;19923;-83
2021/04/13 16:52:11;;;;;;;;;;;;;;;;;;5055403;28;20313;-82
2021/04/13 16:54:37;;;;;;;;;;;;;;;;;;5038043;28;19935;-83
2021/04/13 16:57:02;;;;;;;;;;;;;;;;;;5049309;28;20358;-83
2021/04/13 16:59:28;;;;;;;;;;;;;;;;;;5068532;28;19936;-82
2021/04/13 17:02:12;;;;;;;;;;;;;;;;;;5067626;28;19916;-82
2021/04/13 17:04:48;;;;;;;;;;;;;;;;;;5055083;28;20378;-82
2021/04/13 17:07:32;;;;;;;;;;;;;;;;;;5068792;28;19912;-82
2021/04/13 17:09:58;;;;;;;;;;;;;;;;;;5058345;28;19912;-82
2021/04/13 17:12:29;;;;;;;;;;;;;;;;;;5050222;28;20011;-83